Time;durP1;ratioP1;P1;durP2;ratioP2;P2;SDS_P1;SDS_P2;PMS_P1;PMS_P2;Temp;Humidity;BMP_temperature;BMP_pressure;BME280_temperature;BME280_humidity;BME280_pressure;Samples;Min_cycle;Max_cycle;Signal;HPM_P1;HPM_P2
2021/08/22 00:00:25;;;;;;;6.10;4.50;;;16.90;90.10;;;;;;4915326;29;20044;-83
2021/08/22 00:02:51;;;;;;;6.10;4.90;;;16.80;90.50;;;;;;4918487;29;20023;-83
2021/08/22 00:05:17;;;;;;;7.43;4.75;;;16.80;90.60;;;;;;4916910;29;20032;-83
2021/08/22 00:07:42;;;;;;;5.55;4.63;;;16.70;90.60;;;;;;4917820;29;20070;-83
2021/08/22 00:10:08;;;;;;;7.45;4.72;;;16.80;90.60;;;;;;4895083;29;20036;-84
2021/08/22 00:12:34;;;;;;;4.88;4.03;;;16.80;90.70;;;;;;4914484;29;20541;-83
2021/08/22 00:15:00;;;;;;;7.25;4.78;;;16.70;90.90;;;;;;4917837;29;20068;-83
2021/08/22 00:17:25;;;;;;;5.75;4.15;;;16.70;90.90;;;;;;4903463;29;20066;-83
2021/08/22 00:19:51;;;;;;;6.18;4.53;;;16.80;91.00;;;;;;4915834;29;20051;-83
2021/08/22 00:22:16;;;;;;;5.97;4.72;;;16.70;90.60;;;;;;4915857;29;20040;-83
2021/08/22 00:24:42;;;;;;;7.90;5.03;;;16.70;90.50;;;;;;4917425;29;20477;-84
2021/08/22 00:27:08;;;;;;;6.50;4.70;;;16.70;90.60;;;;;;4898471;29;20068;-84
2021/08/22 00:29:33;;;;;;;7.80;4.90;;;16.60;91.00;;;;;;4899111;29;20058;-83
2021/08/22 00:31:59;;;;;;;5.28;4.03;;;16.60;91.30;;;;;;4899198;29;20044;-83
2021/08/22 00:34:25;;;;;;;7.03;4.43;;;16.60;91.30;;;;;;4912654;29;20079;-83
2021/08/22 00:36:51;;;;;;;10.25;4.47;;;16.70;91.20;;;;;;4917490;29;20040;-83
2021/08/22 00:39:16;;;;;;;6.63;4.60;;;16.60;91.00;;;;;;4914079;29;20100;-84
2021/08/22 00:41:42;;;;;;;5.97;4.60;;;16.60;91.20;;;;;;4914832;29;20111;-83
2021/08/22 00:44:08;;;;;;;6.15;4.82;;;16.50;91.10;;;;;;4902392;29;20024;-84
2021/08/22 00:46:37;;;;;;;8.55;5.07;;;16.50;90.80;;;;;;4900844;29;20024;-82
2021/08/22 00:49:05;;;;;;;8.52;5.00;;;16.40;91.20;;;;;;4919652;29;20051;-82
2021/08/22 00:51:30;;;;;;;8.38;5.78;;;16.30;91.30;;;;;;4915390;29;20040;-82
2021/08/22 00:53:56;;;;;;;6.90;5.65;;;16.30;92.00;;;;;;4914744;29;20032;-82
2021/08/22 00:56:22;;;;;;;6.97;5.53;;;16.30;92.00;;;;;;4900849;29;20042;-82
2021/08/22 00:58:47;;;;;;;7.80;5.05;;;16.40;91.70;;;;;;4911136;29;20071;-82
2021/08/22 01:01:20;;;;;;;7.38;5.25;;;16.40;91.30;;;;;;4901966;29;20056;-82
2021/08/22 01:03:59;;;;;;;7.65;5.10;;;16.50;91.10;;;;;;4915823;29;20083;-83
2021/08/22 01:06:41;;;;;;;7.65;4.88;;;16.50;91.50;;;;;;4917188;29;20391;-83
2021/08/22 01:09:21;;;;;;;6.50;5.03;;;16.60;91.10;;;;;;4902832;29;20035;-83
2021/08/22 01:11:47;;;;;;;6.68;5.15;;;16.60;91.30;;;;;;4899893;29;20048;-83
2021/08/22 01:14:18;;;;;;;8.10;5.35;;;16.60;91.10;;;;;;4914122;29;20039;-83
2021/08/22 01:16:50;;;;;;;7.10;5.13;;;16.60;91.60;;;;;;4903130;29;20228;-82
2021/08/22 01:19:57;;;;;;;8.43;5.25;;;16.60;92.00;;;;;;4915976;29;20489;-83
2021/08/22 01:22:24;;;;;;;7.93;5.67;;;16.50;92.30;;;;;;4900691;29;20035;-82
2021/08/22 01:24:51;;;;;;;8.63;5.97;;;16.60;92.10;;;;;;4905308;29;20060;-82
2021/08/22 01:27:19;;;;;;;8.75;5.82;;;16.70;92.00;;;;;;4900749;29;20036;-82
2021/08/22 01:29:49;;;;;;;9.65;6.63;;;16.70;92.20;;;;;;4901930;29;20718;-83
2021/08/22 01:32:15;;;;;;;9.80;6.35;;;16.70;92.20;;;;;;4911379;29;20559;-82
2021/08/22 01:34:43;;;;;;;12.57;7.15;;;16.70;92.20;;;;;;4912044;29;20036;-82
2021/08/22 01:37:09;;;;;;;10.40;6.88;;;16.80;92.10;;;;;;4895233;29;20068;-83
2021/08/22 01:39:36;;;;;;;8.50;6.07;;;16.80;92.00;;;;;;4899836;29;20036;-83
2021/08/22 01:42:07;;;;;;;8.77;6.13;;;16.90;92.10;;;;;;4913773;29;20024;-82
2021/08/22 01:44:34;;;;;;;12.57;6.78;;;16.90;92.00;;;;;;4913205;29;20016;-82
2021/08/22 01:47:02;;;;;;;9.43;6.65;;;16.90;91.70;;;;;;4909593;29;20115;-83
2021/08/22 01:49:28;;;;;;;9.13;6.22;;;17.00;91.50;;;;;;4914318;29;20047;-82
2021/08/22 01:51:54;;;;;;;7.80;6.25;;;17.00;92.00;;;;;;4920615;29;20557;-82
2021/08/22 01:54:20;;;;;;;10.45;6.38;;;17.00;92.10;;;;;;4913636;29;20409;-83
2021/08/22 01:56:45;;;;;;;8.50;6.30;;;16.90;92.00;;;;;;4916610;29;20040;-83
2021/08/22 01:59:11;;;;;;;8.07;5.97;;;17.00;91.80;;;;;;4914718;29;20028;-82
2021/08/22 02:01:38;;;;;;;10.52;6.45;;;17.00;91.90;;;;;;4912931;29;20378;-82
2021/08/22 02:04:20;;;;;;;9.70;6.85;;;17.10;91.80;;;;;;4897201;29;20088;-82
2021/08/22 02:06:57;;;;;;;11.00;7.15;;;17.10;91.70;;;;;;4914797;29;20056;-82
2021/08/22 02:09:44;;;;;;;11.57;7.03;;;17.20;91.50;;;;;;4897616;29;20036;-82
2021/08/22 02:12:15;;;;;;;9.77;6.57;;;17.20;91.60;;;;;;4910198;29;20300;-82
2021/08/22 02:14:45;;;;;;;9.60;6.65;;;17.20;91.80;;;;;;4911574;29;20040;-82
2021/08/22 02:17:12;;;;;;;9.60;6.65;;;17.30;91.40;;;;;;4897408;29;20039;-82
2021/08/22 02:19:40;;;;;;;11.45;6.85;;;17.30;91.30;;;;;;4915094;29;20040;-83
2021/08/22 02:22:06;;;;;;;11.02;6.85;;;17.30;91.30;;;;;;4912541;29;20661;-83
2021/08/22 02:24:32;;;;;;;12.05;6.78;;;17.30;91.40;;;;;;4909064;29;20029;-83
2021/08/22 02:26:58;;;;;;;10.80;7.03;;;17.40;91.30;;;;;;4896494;29;20027;-83
2021/08/22 02:29:23;;;;;;;11.77;6.90;;;17.40;91.40;;;;;;4895228;29;20047;-82
2021/08/22 02:31:49;;;;;;;9.70;6.22;;;17.40;91.40;;;;;;4896100;29;20095;-82
2021/08/22 02:34:15;;;;;;;8.88;6.50;;;17.40;91.40;;;;;;4911024;29;20408;-82
2021/08/22 02:36:40;;;;;;;9.18;6.80;;;17.40;91.40;;;;;;4914175;29;20055;-83
2021/08/22 02:39:06;;;;;;;18.65;7.47;;;17.30;91.50;;;;;;4913297;29;20056;-83
2021/08/22 02:41:32;;;;;;;11.25;7.20;;;17.20;92.30;;;;;;4913413;29;20028;-83
2021/08/22 02:43:57;;;;;;;16.35;7.55;;;17.30;92.00;;;;;;4896542;29;20059;-83
2021/08/22 02:46:24;;;;;;;10.82;7.40;;;17.20;92.20;;;;;;4894773;29;20036;-83
2021/08/22 02:48:49;;;;;;;10.10;6.97;;;17.20;92.30;;;;;;4908438;29;20032;-83
2021/08/22 02:51:15;;;;;;;9.90;6.45;;;17.30;91.90;;;;;;4913721;29;20035;-84
2021/08/22 02:53:41;;;;;;;10.27;6.97;;;17.40;91.60;;;;;;4912948;29;20032;-83
2021/08/22 02:56:06;;;;;;;9.98;6.63;;;17.50;91.50;;;;;;4897507;29;20106;-83
2021/08/22 02:58:32;;;;;;;8.95;6.55;;;17.50;91.50;;;;;;4890491;29;20044;-84
2021/08/22 03:00:58;;;;;;;8.73;6.15;;;17.50;91.00;;;;;;4912564;29;20044;-83
2021/08/22 03:03:24;;;;;;;11.27;6.95;;;17.60;91.20;;;;;;4896222;29;20036;-84
2021/08/22 03:05:49;;;;;;;8.15;5.90;;;17.60;90.90;;;;;;4915632;29;20039;-83
2021/08/22 03:08:17;;;;;;;8.63;5.53;;;17.70;91.00;;;;;;4899818;29;20501;-83
2021/08/22 03:10:45;;;;;;;10.07;6.85;;;17.60;91.20;;;;;;4899768;29;20028;-83
2021/08/22 03:13:11;;;;;;;10.15;6.70;;;17.60;91.20;;;;;;4902566;29;20083;-84
2021/08/22 03:15:37;;;;;;;8.00;6.03;;;17.60;91.00;;;;;;4917601;29;20496;-83
2021/08/22 03:18:03;;;;;;;11.73;6.55;;;17.60;90.80;;;;;;4920143;29;20028;-83
2021/08/22 03:20:28;;;;;;;11.35;6.63;;;17.70;91.10;;;;;;4899586;29;20033;-84
2021/08/22 03:22:54;;;;;;;9.20;6.28;;;17.70;90.80;;;;;;4901931;29;20137;-84
2021/08/22 03:25:20;;;;;;;12.70;6.38;;;17.70;91.00;;;;;;4915947;29;20445;-83
2021/08/22 03:27:45;;;;;;;8.43;5.70;;;17.70;91.40;;;;;;4899372;29;20043;-83
2021/08/22 03:30:12;;;;;;;10.25;6.32;;;17.70;91.60;;;;;;4901356;29;20127;-84
2021/08/22 03:32:37;;;;;;;10.85;6.10;;;17.70;91.70;;;;;;4905077;29;20056;-83
2021/08/22 03:35:04;;;;;;;10.02;5.88;;;17.50;91.60;;;;;;4915760;29;20035;-83
2021/08/22 03:37:29;;;;;;;10.88;5.93;;;17.60;91.30;;;;;;4910184;29;20035;-83
2021/08/22 03:39:55;;;;;;;7.10;5.35;;;17.60;91.50;;;;;;4903346;29;20032;-83
2021/08/22 03:42:21;;;;;;;10.05;5.82;;;17.60;92.20;;;;;;4919149;29;20025;-83
2021/08/22 03:44:47;;;;;;;7.78;5.72;;;17.60;91.70;;;;;;4905167;29;20059;-83
2021/08/22 03:47:13;;;;;;;8.77;5.80;;;17.70;91.50;;;;;;4921003;29;20151;-83
2021/08/22 03:49:38;;;;;;;8.90;5.93;;;17.70;91.40;;;;;;4901783;29;20051;-84
2021/08/22 03:52:05;;;;;;;9.80;5.85;;;17.70;91.30;;;;;;4910834;29;20028;-84
2021/08/22 03:54:30;;;;;;;8.35;5.57;;;17.70;91.60;;;;;;4907102;29;20036;-84
2021/08/22 03:56:56;;;;;;;8.30;5.95;;;17.70;91.70;;;;;;4903530;29;20040;-84
2021/08/22 03:59:22;;;;;;;9.27;5.60;;;17.60;91.60;;;;;;4905863;29;20028;-84
2021/08/22 04:01:47;;;;;;;9.27;6.05;;;17.60;91.60;;;;;;4917332;29;20103;-84
2021/08/22 04:04:13;;;;;;;8.70;6.28;;;17.60;91.80;;;;;;4904289;29;20087;-84
2021/08/22 04:06:46;;;;;;;8.57;6.20;;;17.60;91.70;;;;;;4898949;29;20051;-84
2021/08/22 04:09:12;;;;;;;7.53;5.70;;;17.60;91.80;;;;;;4916183;29;20459;-84
2021/08/22 04:11:38;;;;;;;7.97;5.32;;;17.60;91.80;;;;;;4901942;29;20493;-84
2021/08/22 04:14:08;;;;;;;8.35;5.53;;;17.50;91.80;;;;;;4903828;29;20058;-84
2021/08/22 04:16:34;;;;;;;11.88;6.68;;;17.50;92.30;;;;;;4909432;29;20024;-84
2021/08/22 04:19:00;;;;;;;8.70;6.10;;;17.40;92.40;;;;;;4896207;29;20032;-84
2021/08/22 04:21:25;;;;;;;8.95;6.00;;;17.40;92.40;;;;;;4921872;29;20031;-84
2021/08/22 04:23:51;;;;;;;8.25;5.63;;;17.40;92.40;;;;;;4910011;29;20120;-84
2021/08/22 04:26:16;;;;;;;10.27;6.30;;;17.40;92.50;;;;;;4917600;29;20024;-84
2021/08/22 04:28:42;;;;;;;9.45;5.93;;;17.40;92.50;;;;;;4918648;29;20020;-84
2021/08/22 04:31:08;;;;;;;9.20;5.85;;;17.40;92.50;;;;;;4897407;29;20043;-84
2021/08/22 04:33:33;;;;;;;11.18;6.57;;;17.40;92.50;;;;;;4912555;29;20066;-84
2021/08/22 04:35:59;;;;;;;8.85;5.78;;;17.30;92.60;;;;;;4912507;29;20063;-84
2021/08/22 04:38:25;;;;;;;8.10;6.20;;;17.40;92.80;;;;;;4922013;29;20028;-84
2021/08/22 04:40:51;;;;;;;8.45;5.97;;;17.40;92.80;;;;;;4900610;29;20040;-84
2021/08/22 04:43:16;;;;;;;10.57;6.90;;;17.40;92.50;;;;;;4914625;29;20512;-84
2021/08/22 04:45:42;;;;;;;10.20;6.40;;;17.40;92.40;;;;;;4904931;29;20036;-84
2021/08/22 04:48:07;;;;;;;9.93;6.30;;;17.40;92.50;;;;;;4900113;29;20067;-83
2021/08/22 04:50:33;;;;;;;12.48;7.28;;;17.50;92.50;;;;;;4904773;29;20131;-84
2021/08/22 04:52:59;;;;;;;9.73;6.55;;;17.50;92.60;;;;;;4901042;29;20036;-84
2021/08/22 04:55:24;;;;;;;12.73;6.60;;;17.50;92.70;;;;;;4918898;29;20032;-84
2021/08/22 04:57:50;;;;;;;11.57;6.35;;;17.50;92.30;;;;;;4901060;29;20033;-83
2021/08/22 05:00:16;;;;;;;9.07;6.20;;;17.50;92.80;;;;;;4900250;29;20028;-84
2021/08/22 05:02:42;;;;;;;9.07;5.82;;;17.50;92.40;;;;;;4915126;29;20043;-84
2021/08/22 05:05:08;;;;;;;8.35;6.18;;;17.50;92.20;;;;;;4920690;29;20032;-84
2021/08/22 05:07:33;;;;;;;8.68;6.40;;;17.60;92.10;;;;;;4902769;29;20055;-84
2021/08/22 05:09:59;;;;;;;8.57;6.80;;;17.60;92.50;;;;;;4903122;29;20091;-83
2021/08/22 05:12:25;;;;;;;10.73;6.55;;;17.60;92.00;;;;;;4905741;29;20047;-83
2021/08/22 05:14:50;;;;;;;12.27;6.25;;;17.60;92.80;;;;;;4917547;29;20091;-83
2021/08/22 05:17:16;;;;;;;9.07;6.20;;;17.60;92.50;;;;;;4919062;29;20098;-84
2021/08/22 05:19:42;;;;;;;8.70;6.30;;;17.60;92.40;;;;;;4919937;29;20063;-83
2021/08/22 05:22:08;;;;;;;9.93;6.43;;;17.60;92.30;;;;;;4917637;29;20060;-83
2021/08/22 05:24:33;;;;;;;11.90;6.43;;;17.60;92.30;;;;;;4910589;29;20032;-83
2021/08/22 05:26:59;;;;;;;8.50;6.05;;;17.60;92.60;;;;;;4898619;29;20246;-83
2021/08/22 05:29:25;;;;;;;11.73;6.18;;;17.70;92.20;;;;;;4900369;29;20580;-84
2021/08/22 05:31:50;;;;;;;8.88;5.80;;;17.70;92.20;;;;;;4920427;29;20055;-84
2021/08/22 05:34:16;;;;;;;9.02;5.88;;;17.70;92.20;;;;;;4912398;29;20036;-84
2021/08/22 05:36:43;;;;;;;7.25;5.38;;;17.70;92.20;;;;;;4905375;29;20039;-84
2021/08/22 05:39:08;;;;;;;10.13;5.78;;;17.80;92.60;;;;;;4917756;29;20031;-84
2021/08/22 05:41:34;;;;;;;11.73;6.07;;;17.80;92.20;;;;;;4898823;29;20281;-84
2021/08/22 05:44:00;;;;;;;9.07;6.13;;;17.80;92.40;;;;;;4898820;29;20079;-84
2021/08/22 05:46:26;;;;;;;8.20;6.07;;;17.80;92.70;;;;;;4908774;29;20056;-84
2021/08/22 05:48:51;;;;;;;9.30;5.78;;;17.80;92.30;;;;;;4900078;29;20052;-84
2021/08/22 05:51:20;;;;;;;7.90;5.75;;;17.80;92.90;;;;;;4905966;29;20040;-83
2021/08/22 05:53:46;;;;;;;;;;;17.80;92.50;;;;;;4917460;29;20036;-81
2021/08/22 05:56:12;;;;;;;8.35;5.15;;;17.80;92.40;;;;;;4901008;29;20112;-81
2021/08/22 05:58:38;;;;;;;7.15;5.10;;;17.80;92.20;;;;;;4918760;29;20024;-82
2021/08/22 06:01:04;;;;;;;7.65;5.18;;;17.80;92.30;;;;;;4912406;29;20048;-81
2021/08/22 06:03:30;;;;;;;8.13;5.90;;;17.90;92.40;;;;;;4906951;29;20031;-81
2021/08/22 06:05:56;;;;;;;8.73;5.53;;;17.90;92.50;;;;;;4919153;29;20366;-81
2021/08/22 06:08:22;;;;;;;8.98;5.47;;;17.90;92.40;;;;;;4912357;29;20058;-82
2021/08/22 06:10:47;;;;;;;8.63;5.78;;;18.00;92.30;;;;;;4903663;29;20552;-82
2021/08/22 06:13:13;;;;;;;6.55;5.25;;;18.00;92.30;;;;;;4901601;29;20050;-81
2021/08/22 06:15:39;;;;;;;7.82;5.10;;;18.00;92.10;;;;;;4903111;29;20457;-81
2021/08/22 06:18:05;;;;;;;7.93;5.28;;;18.10;92.10;;;;;;4918179;29;20046;-82
2021/08/22 06:20:31;;;;;;;7.03;4.95;;;18.10;91.80;;;;;;4897998;29;20058;-82
2021/08/22 06:22:56;;;;;;;7.00;5.00;;;18.10;91.90;;;;;;4898658;29;20029;-82
2021/08/22 06:25:22;;;;;;;6.30;4.43;;;18.10;91.90;;;;;;4897968;29;20137;-82
2021/08/22 06:27:48;;;;;;;8.23;4.57;;;18.10;91.80;;;;;;4900207;29;20446;-83
2021/08/22 06:30:14;;;;;;;5.88;4.55;;;18.10;91.70;;;;;;4899525;29;20028;-82
2021/08/22 06:32:40;;;;;;;8.40;5.28;;;18.10;91.80;;;;;;4901356;29;20040;-82
2021/08/22 06:35:06;;;;;;;7.68;4.28;;;18.20;91.90;;;;;;4916509;29;20032;-82
2021/08/22 06:37:32;;;;;;;5.90;4.55;;;18.20;92.10;;;;;;4898560;29;20031;-81
2021/08/22 06:40:02;;;;;;;6.65;4.45;;;18.20;91.60;;;;;;4917629;29;20032;-82
2021/08/22 06:42:28;;;;;;;6.95;4.53;;;18.30;91.40;;;;;;4913941;29;20056;-83
2021/08/22 06:44:54;;;;;;;6.78;4.32;;;18.30;91.30;;;;;;4917960;29;20115;-82
2021/08/22 06:47:19;;;;;;;5.75;4.30;;;18.30;91.40;;;;;;4902624;29;20036;-82
2021/08/22 06:49:45;;;;;;;7.25;5.18;;;18.40;91.50;;;;;;4897945;29;20032;-82
2021/08/22 06:52:12;;;;;;;8.40;4.40;;;18.40;91.30;;;;;;4916621;29;20483;-82
2021/08/22 06:54:41;;;;;;;6.22;4.47;;;18.50;91.20;;;;;;4915273;29;20048;-81
2021/08/22 06:57:11;;;;;;;7.28;4.35;;;18.60;91.20;;;;;;4898171;29;20024;-82
2021/08/22 06:59:38;;;;;;;6.10;4.10;;;18.70;90.70;;;;;;4895804;29;20084;-82
2021/08/22 07:02:04;;;;;;;5.45;3.63;;;18.70;90.90;;;;;;4915728;29;20071;-83
2021/08/22 07:04:29;;;;;;;4.88;3.97;;;18.70;90.30;;;;;;4899044;29;20048;-82
2021/08/22 07:06:57;;;;;;;5.03;3.90;;;18.70;90.20;;;;;;4914886;29;20104;-83
2021/08/22 07:09:23;;;;;;;;;;;18.80;89.80;;;;;;4913423;29;20040;-82
2021/08/22 07:11:49;;;;;;;5.72;4.10;;;18.80;90.20;;;;;;4897897;29;20436;-82
2021/08/22 07:14:14;;;;;;;5.63;3.30;;;18.80;90.00;;;;;;4896354;29;20508;-82
2021/08/22 07:16:40;;;;;;;4.15;3.50;;;18.80;89.60;;;;;;4897237;29;20036;-82
2021/08/22 07:19:07;;;;;;;3.80;2.92;;;18.80;89.80;;;;;;4920871;29;20035;-82
2021/08/22 07:21:33;;;;;;;4.95;3.30;;;18.80;89.90;;;;;;4916068;29;20056;-83
2021/08/22 07:23:59;;;;;;;5.07;3.63;;;18.80;90.00;;;;;;4916989;29;20496;-82
2021/08/22 07:26:24;;;;;;;4.13;2.72;;;18.90;90.00;;;;;;4896981;29;20036;-83
2021/08/22 07:28:50;;;;;;;5.80;3.50;;;18.90;89.30;;;;;;4916585;29;20028;-82
2021/08/22 07:31:16;;;;;;;5.32;3.08;;;18.90;89.10;;;;;;4917428;29;20036;-82
2021/08/22 07:33:42;;;;;;;4.53;3.25;;;18.90;88.30;;;;;;4906488;29;20375;-83
2021/08/22 07:36:07;;;;;;;3.67;3.10;;;18.90;88.30;;;;;;4908078;29;20028;-82
2021/08/22 07:38:33;;;;;;;5.97;3.42;;;18.90;89.30;;;;;;4920949;29;20096;-82
2021/08/22 07:40:59;;;;;;;4.50;3.30;;;19.00;90.20;;;;;;4922441;29;20088;-82
2021/08/22 07:43:25;;;;;;;6.25;3.17;;;19.00;89.30;;;;;;4923622;29;20051;-83
2021/08/22 07:45:51;;;;;;;5.55;3.42;;;19.10;89.80;;;;;;4920046;29;20107;-82
2021/08/22 07:48:17;;;;;;;3.60;3.30;;;19.20;89.40;;;;;;4921134;29;20477;-84
2021/08/22 07:50:42;;;;;;;4.72;3.33;;;19.20;86.50;;;;;;4901412;29;20035;-82
2021/08/22 07:53:08;;;;;;;5.13;3.13;;;19.10;87.10;;;;;;4917403;29;20028;-82
2021/08/22 07:55:35;;;;;;;4.25;3.00;;;19.20;87.00;;;;;;4902580;29;20393;-81
2021/08/22 07:58:00;;;;;;;3.75;2.83;;;19.20;86.90;;;;;;4901771;29;20039;-81
2021/08/22 08:00:26;;;;;;;5.70;3.08;;;19.30;87.00;;;;;;4919542;29;20025;-82
2021/08/22 08:02:52;;;;;;;5.18;3.08;;;19.30;86.30;;;;;;4918878;29;20032;-82
2021/08/22 08:05:17;;;;;;;5.22;3.20;;;19.30;85.70;;;;;;4905353;29;20023;-81
2021/08/22 08:07:43;;;;;;;3.78;2.90;;;19.40;86.90;;;;;;4918249;29;20104;-82
2021/08/22 08:10:10;;;;;;;4.57;2.95;;;19.50;86.20;;;;;;4916900;29;20032;-82
2021/08/22 08:12:36;;;;;;;3.55;2.78;;;19.50;86.50;;;;;;4904228;29;20520;-82
2021/08/22 08:15:02;;;;;;;4.18;3.00;;;19.50;85.40;;;;;;4918154;29;21013;-82
2021/08/22 08:17:28;;;;;;;4.03;3.20;;;19.50;85.10;;;;;;4904267;29;20402;-82
2021/08/22 08:19:54;;;;;;;4.82;2.85;;;19.50;86.60;;;;;;4901062;29;20031;-82
2021/08/22 08:22:19;;;;;;;3.95;2.60;;;19.60;85.50;;;;;;4901024;29;20088;-82
2021/08/22 08:24:46;;;;;;;3.65;2.85;;;19.60;84.40;;;;;;4900641;29;20051;-82
2021/08/22 08:27:11;;;;;;;3.28;2.83;;;19.60;84.40;;;;;;4914128;29;20116;-82
2021/08/22 08:29:37;;;;;;;5.70;3.00;;;19.50;85.20;;;;;;4898641;29;20115;-83
2021/08/22 08:32:03;;;;;;;3.92;2.80;;;19.60;85.00;;;;;;4920385;29;20037;-83
2021/08/22 08:34:28;;;;;;;3.95;2.88;;;19.60;85.70;;;;;;4919750;29;20032;-82
2021/08/22 08:36:54;;;;;;;4.10;3.13;;;19.70;85.20;;;;;;4916147;29;20485;-82
2021/08/22 08:39:20;;;;;;;2.75;2.40;;;19.70;84.10;;;;;;4910248;29;20142;-82
2021/08/22 08:41:46;;;;;;;3.17;2.70;;;19.70;84.60;;;;;;4901951;29;20036;-83
2021/08/22 08:44:13;;;;;;;2.85;2.53;;;19.80;85.00;;;;;;4900116;29;20431;-82
2021/08/22 08:46:47;;;;;;;5.63;3.13;;;19.80;83.70;;;;;;4901503;29;20052;-82
2021/08/22 08:49:32;;;;;;;4.75;3.10;;;19.80;83.30;;;;;;4900605;29;20032;-82
2021/08/22 08:52:04;;;;;;;4.10;2.67;;;19.80;85.00;;;;;;4914808;29;20028;-82
2021/08/22 08:54:47;;;;;;;4.07;3.13;;;19.90;85.00;;;;;;4918838;29;20561;-82
2021/08/22 08:57:15;;;;;;;4.40;3.20;;;20.00;85.80;;;;;;4900826;29;20486;-82
2021/08/22 08:59:41;;;;;;;3.72;2.70;;;20.10;85.60;;;;;;4918302;29;20079;-81
2021/08/22 09:02:07;;;;;;;5.28;3.30;;;20.10;83.60;;;;;;4918225;29;20037;-81
2021/08/22 09:04:53;;;;;;;4.18;2.97;;;20.10;82.30;;;;;;4916385;29;20069;-82
2021/08/22 09:07:46;;;;;;;3.72;3.08;;;20.20;82.80;;;;;;4916981;29;20083;-83
2021/08/22 09:10:33;;;;;;;5.72;3.47;;;20.20;81.10;;;;;;4901084;29;20036;-82
2021/08/22 09:13:37;;;;;;;4.15;3.03;;;20.30;82.30;;;;;;4915211;29;20064;-82
2021/08/22 09:16:40;;;;;;;4.25;3.10;;;20.40;81.70;;;;;;4917037;29;20043;-82
2021/08/22 09:19:17;;;;;;;3.63;2.67;;;20.40;82.40;;;;;;4917055;29;20036;-83
2021/08/22 09:21:55;;;;;;;;;;;20.60;80.70;;;;;;4910751;29;20017;-82
2021/08/22 09:24:40;;;;;;;;;;;20.70;80.60;;;;;;4917180;29;20427;-82
2021/08/22 09:27:23;;;;;;;3.35;2.83;;;20.80;79.60;;;;;;4914211;29;21449;-81
2021/08/22 09:30:10;;;;;;;4.13;3.03;;;20.80;80.30;;;;;;4914335;29;20031;-84
2021/08/22 09:33:23;;;;;;;4.95;2.80;;;20.90;79.70;;;;;;4913850;29;20509;-82
2021/08/22 09:36:23;;;;;;;4.85;3.17;;;20.90;79.50;;;;;;4871279;29;20051;-82
2021/08/22 09:39:26;;;;;;;5.13;3.38;;;21.00;79.50;;;;;;4914916;29;20556;-82
2021/08/22 09:42:39;;;;;;;3.97;2.92;;;20.90;79.70;;;;;;4921183;29;20551;-83
2021/08/22 09:45:43;;;;;;;5.05;2.90;;;20.90;77.40;;;;;;4888661;29;20048;-82
2021/08/22 09:48:46;;;;;;;4.63;3.33;;;20.90;77.60;;;;;;4912685;29;20032;-82
2021/08/22 09:51:26;;;;;;;4.78;2.65;;;20.80;78.30;;;;;;4911074;29;20060;-82
2021/08/22 09:54:31;;;;;;;3.70;2.97;;;20.90;79.60;;;;;;4914242;29;20430;-82
2021/08/22 09:57:40;;;;;;;3.63;3.00;;;20.90;79.80;;;;;;4899985;29;20040;-83
2021/08/22 10:00:08;;;;;;;3.78;2.83;;;21.00;81.00;;;;;;4909951;29;20040;-83
2021/08/22 10:03:12;;;;;;;4.93;3.10;;;20.90;78.00;;;;;;4916140;29;20035;-82
2021/08/22 10:05:41;;;;;;;5.53;3.97;;;20.90;79.30;;;;;;4871347;29;20128;-83
2021/08/22 10:08:25;;;;;;;4.78;2.80;;;21.00;80.20;;;;;;4899211;29;20040;-83
2021/08/22 10:10:53;;;;;;;4.22;2.95;;;20.90;78.30;;;;;;4909963;29;20115;-83
2021/08/22 10:13:19;;;;;;;4.78;2.90;;;21.00;78.60;;;;;;4906301;29;20517;-82
2021/08/22 10:15:46;;;;;;;4.03;2.83;;;20.80;78.40;;;;;;4909866;29;20175;-83
2021/08/22 10:18:22;;;;;;;4.85;3.05;;;20.80;78.20;;;;;;4908828;29;20042;-82
2021/08/22 10:20:48;;;;;;;4.68;2.85;;;20.70;78.80;;;;;;4899263;29;20072;-82
2021/08/22 10:23:32;;;;;;;5.60;3.17;;;20.80;78.70;;;;;;4905919;29;20123;-81
2021/08/22 10:25:58;;;;;;;3.92;2.70;;;20.80;79.80;;;;;;4911259;29;20028;-82
2021/08/22 10:28:49;;;;;;;3.85;2.97;;;20.80;80.20;;;;;;4901370;29;20055;-84
2021/08/22 10:31:50;;;;;;;4.85;3.17;;;20.80;78.10;;;;;;4914567;29;20408;-83
2021/08/22 10:34:16;;;;;;;4.43;2.75;;;20.80;78.90;;;;;;4914977;29;20101;-84
2021/08/22 10:36:42;;;;;;;4.10;3.30;;;20.90;79.90;;;;;;4914241;29;20149;-83
2021/08/22 10:39:25;;;;;;;4.05;3.08;;;20.90;78.80;;;;;;4917811;29;20020;-84
2021/08/22 10:42:21;;;;;;;3.03;2.50;;;20.90;77.90;;;;;;4915032;29;20028;-84
2021/08/22 10:44:47;;;;;;;3.50;2.75;;;20.90;78.70;;;;;;4917152;29;20036;-83
2021/08/22 10:47:34;;;;;;;4.13;2.92;;;21.10;80.50;;;;;;4901432;29;20159;-83
2021/08/22 10:50:00;;;;;;;4.10;3.07;;;21.10;78.60;;;;;;4901503;29;20036;-83
2021/08/22 10:52:30;;;;;;;4.07;3.03;;;21.00;78.70;;;;;;4895917;29;20036;-83
2021/08/22 10:55:14;;;;;;;4.22;3.00;;;21.10;79.30;;;;;;4914279;29;20099;-82
2021/08/22 10:57:45;;;;;;;7.68;3.42;;;21.00;79.00;;;;;;4915565;29;20052;-83
2021/08/22 11:00:25;;;;;;;3.38;2.67;;;21.00;77.50;;;;;;4914954;29;20051;-83
2021/08/22 11:02:55;;;;;;;4.07;2.83;;;21.00;76.00;;;;;;4912352;29;20032;-83
2021/08/22 11:05:23;;;;;;;3.55;2.88;;;20.90;76.40;;;;;;4912347;29;20119;-82
2021/08/22 11:07:54;;;;;;;4.85;2.97;;;20.90;76.90;;;;;;4895505;29;20059;-82
2021/08/22 11:10:27;;;;;;;3.70;2.42;;;20.90;76.60;;;;;;4911802;29;20063;-83
2021/08/22 11:12:53;;;;;;;4.38;2.65;;;20.90;76.20;;;;;;4915844;29;20028;-82
2021/08/22 11:15:26;;;;;;;5.18;2.92;;;20.90;76.10;;;;;;4914016;29;20028;-83
2021/08/22 11:17:54;;;;;;;5.07;3.28;;;21.00;76.10;;;;;;4917267;29;20067;-83
2021/08/22 11:20:23;;;;;;;3.50;2.75;;;21.10;77.50;;;;;;4916347;29;20552;-82
2021/08/22 11:22:55;;;;;;;3.63;2.88;;;21.10;76.40;;;;;;4918730;29;20035;-83
2021/08/22 11:25:25;;;;;;;4.35;2.60;;;21.20;76.20;;;;;;4901239;29;20520;-82
2021/08/22 11:28:06;;;;;;;4.93;2.92;;;21.20;75.70;;;;;;4913821;29;20115;-82
2021/08/22 11:30:33;;;;;;;4.65;3.40;;;21.40;77.20;;;;;;4913114;29;20044;-82
2021/08/22 11:32:59;;;;;;;3.58;2.80;;;21.50;78.00;;;;;;4901163;29;20028;-82
2021/08/22 11:35:25;;;;;;;4.63;3.03;;;21.50;76.50;;;;;;4911047;29;20032;-82
2021/08/22 11:37:52;;;;;;;3.90;3.08;;;21.50;76.30;;;;;;4898807;29;20032;-82
2021/08/22 11:40:20;;;;;;;4.07;2.80;;;21.50;74.70;;;;;;4916051;29;20039;-82
2021/08/22 11:42:47;;;;;;;4.78;3.13;;;21.50;75.50;;;;;;4916067;29;20046;-83
2021/08/22 11:45:16;;;;;;;3.55;3.00;;;21.50;74.30;;;;;;4920882;29;20119;-83
2021/08/22 11:47:42;;;;;;;6.70;3.15;;;21.40;74.90;;;;;;4916812;29;20055;-83
2021/08/22 11:50:10;;;;;;;6.72;3.33;;;21.30;75.20;;;;;;4919446;29;20020;-84
2021/08/22 11:52:38;;;;;;;3.65;3.00;;;21.20;73.80;;;;;;4901339;29;20087;-83
2021/08/22 11:58:16;;;;;;;4.00;2.85;;;21.20;74.70;;;;;;4914059;29;20698;-83
2021/08/22 12:00:45;;;;;;;4.63;3.50;;;21.20;75.50;;;;;;4910821;29;20099;-83
2021/08/22 12:03:16;;;;;;;4.18;3.20;;;21.30;75.00;;;;;;4915133;29;20599;-83
2021/08/22 12:06:01;;;;;;;4.47;3.10;;;21.40;76.80;;;;;;4895664;29;20024;-83
2021/08/22 12:08:31;;;;;;;4.65;2.65;;;21.40;75.80;;;;;;4908778;29;20056;-84
2021/08/22 12:11:13;;;;;;;4.50;2.97;;;21.50;74.90;;;;;;4892107;29;20624;-83
2021/08/22 12:13:41;;;;;;;4.93;3.13;;;21.50;76.30;;;;;;4888183;29;20131;-84
2021/08/22 12:16:22;;;;;;;4.28;3.03;;;21.50;76.00;;;;;;4892915;29;20024;-82
2021/08/22 12:18:47;;;;;;;4.20;3.00;;;21.50;74.80;;;;;;4905431;29;21214;-82
2021/08/22 12:21:19;;;;;;;4.30;2.72;;;21.50;74.00;;;;;;4889581;29;20028;-82
2021/08/22 12:23:52;;;;;;;4.82;2.72;;;21.50;74.40;;;;;;4908198;29;20055;-83
2021/08/22 12:26:29;;;;;;;4.50;2.92;;;21.50;73.30;;;;;;4910611;29;20044;-83
2021/08/22 12:29:09;;;;;;;4.10;2.80;;;21.60;75.60;;;;;;4912522;29;20028;-83
2021/08/22 12:31:39;;;;;;;3.28;2.80;;;21.50;74.10;;;;;;4894621;29;20036;-80
2021/08/22 12:34:10;;;;;;;5.43;3.33;;;21.50;74.30;;;;;;4912011;29;20623;-82
2021/08/22 12:36:39;;;;;;;4.47;2.92;;;21.50;75.30;;;;;;4916479;29;20036;-82
2021/08/22 12:39:07;;;;;;;5.85;3.33;;;21.50;74.90;;;;;;4918006;29;20521;-82
2021/08/22 12:41:45;;;;;;;3.92;2.92;;;21.50;75.30;;;;;;4918267;29;20028;-82
2021/08/22 12:44:16;;;;;;;3.92;2.85;;;21.60;74.90;;;;;;4918013;29;20032;-82
2021/08/22 12:46:43;;;;;;;3.80;3.00;;;21.50;74.50;;;;;;4916367;29;20063;-81
2021/08/22 12:49:09;;;;;;;5.15;3.45;;;21.50;76.50;;;;;;4917352;29;20478;-82
2021/08/22 12:51:37;;;;;;;4.65;3.20;;;21.60;75.90;;;;;;4921565;29;20059;-82
2021/08/22 12:54:03;;;;;;;;;;;21.50;74.90;;;;;;4920204;29;20597;-81
2021/08/22 12:56:29;;;;;;;4.95;3.28;;;21.50;75.70;;;;;;4902285;29;20368;-83
2021/08/22 12:58:55;;;;;;;7.68;2.30;;;21.40;78.00;;;;;;4916911;29;20039;-83
2021/08/22 13:01:23;;;;;;;7.00;2.40;;;20.80;74.30;;;;;;4898829;29;20634;-83